Time;durP1;ratioP1;P1;durP2;ratioP2;P2;SDS_P1;SDS_P2;PMS_P1;PMS_P2;Temp;Humidity;BMP_temperature;BMP_pressure;BME280_temperature;BME280_humidity;BME280_pressure;Samples;Min_cycle;Max_cycle;Signal;HPM_P1;HPM_P2
2021/12/13 00:00:46;;;;;;;22.85;16.70;;;12.00;90.10;;;;;;5068467;28;20029;-72
2021/12/13 00:03:15;;;;;;;21.00;13.93;;;12.00;90.10;;;;;;5073957;28;20097;-72
2021/12/13 00:05:46;;;;;;;23.15;15.60;;;12.00;90.40;;;;;;5074766;28;20032;-72
2021/12/13 00:08:18;;;;;;;23.33;15.98;;;12.10;90.10;;;;;;5073827;28;20464;-72
2021/12/13 00:10:52;;;;;;;21.85;15.32;;;12.00;90.10;;;;;;5074584;28;20305;-72
2021/12/13 00:13:35;;;;;;;21.30;14.93;;;12.00;90.10;;;;;;5074566;28;20052;-71
2021/12/13 00:16:04;;;;;;;21.50;14.45;;;12.00;90.10;;;;;;5074435;28;20113;-71
2021/12/13 00:18:36;;;;;;;20.10;14.48;;;12.00;90.10;;;;;;5073997;28;20151;-72
2021/12/13 00:21:08;;;;;;;;;;;12.00;90.10;;;;;;5056946;28;20476;-72
2021/12/13 00:23:42;;;;;;;17.55;13.35;;;12.00;90.00;;;;;;5074263;28;19949;-72
2021/12/13 00:26:08;;;;;;;20.88;13.88;;;12.00;90.10;;;;;;5073579;28;20040;-72
2021/12/13 00:28:38;;;;;;;21.80;13.30;;;12.00;90.10;;;;;;5073295;28;20118;-72
2021/12/13 00:31:20;;;;;;;20.63;14.40;;;12.00;90.10;;;;;;5073152;28;20028;-71
2021/12/13 00:34:24;;;;;;;20.17;13.75;;;12.00;90.10;;;;;;5073783;28;20107;-72
2021/12/13 00:37:00;;;;;;;20.05;14.00;;;12.00;90.10;;;;;;5058608;28;20066;-72
2021/12/13 00:39:31;;;;;;;20.42;13.95;;;12.00;90.10;;;;;;5070999;28;20043;-73
2021/12/13 00:42:00;;;;;;;21.40;14.52;;;12.00;90.10;;;;;;5073428;28;20453;-72
2021/12/13 00:44:39;;;;;;;20.88;15.00;;;12.00;90.00;;;;;;5056000;28;20433;-71
2021/12/13 00:47:16;;;;;;;22.55;13.82;;;12.00;90.00;;;;;;5073096;28;20090;-72
2021/12/13 00:49:48;;;;;;;19.05;12.77;;;12.00;90.30;;;;;;5072444;28;20460;-71
2021/12/13 00:52:16;;;;;;;19.90;12.82;;;12.00;90.00;;;;;;5072733;28;20020;-71
2021/12/13 00:54:43;;;;;;;19.38;13.18;;;12.00;90.00;;;;;;5074131;28;20028;-72
2021/12/13 00:57:42;;;;;;;21.45;13.13;;;12.00;90.00;;;;;;5073889;28;20108;-72
2021/12/13 01:00:10;;;;;;;18.15;13.43;;;12.00;90.00;;;;;;5066627;28;20040;-72
2021/12/13 01:02:47;;;;;;;19.10;12.98;;;12.00;90.00;;;;;;5072057;28;20025;-72
2021/12/13 01:05:17;;;;;;;20.35;13.88;;;12.00;90.00;;;;;;5074219;28;20041;-72
2021/12/13 01:08:29;;;;;;;22.67;14.75;;;11.90;90.00;;;;;;5074077;28;20116;-72
2021/12/13 01:11:10;;;;;;;21.83;14.38;;;12.00;90.00;;;;;;5060192;28;20090;-71
2021/12/13 01:13:40;;;;;;;21.33;14.30;;;12.00;90.00;;;;;;5076638;28;20119;-72
2021/12/13 01:16:32;;;;;;;20.02;13.32;;;12.00;90.00;;;;;;5077567;28;20215;-72
2021/12/13 01:22:34;;;;;;;21.08;13.27;;;12.00;90.00;;;;;;5076296;28;20036;-72
2021/12/13 01:28:08;;;;;;;19.70;13.77;;;11.90;89.90;;;;;;5077909;28;20057;-72
2021/12/13 01:30:40;;;;;;;19.65;14.38;;;11.90;89.80;;;;;;5049322;28;20037;-72
2021/12/13 01:33:09;;;;;;;19.73;13.55;;;11.90;89.90;;;;;;5072929;28;20028;-72
2021/12/13 01:35:40;;;;;;;21.13;13.95;;;11.90;90.00;;;;;;5076681;28;20090;-72
2021/12/13 01:38:32;;;;;;;22.17;14.65;;;11.90;90.00;;;;;;5077205;28;20017;-71
2021/12/13 01:41:00;;;;;;;20.10;14.20;;;11.90;89.90;;;;;;5076950;28;20068;-71
2021/12/13 01:43:30;;;;;;;23.67;14.80;;;11.90;89.90;;;;;;5075992;28;20028;-72
2021/12/13 01:45:58;;;;;;;20.38;15.02;;;11.90;89.90;;;;;;5077477;28;20089;-71
2021/12/13 01:48:33;;;;;;;23.40;15.52;;;11.90;89.90;;;;;;5076340;28;20119;-72
2021/12/13 01:51:05;;;;;;;23.65;15.90;;;11.90;89.90;;;;;;5056714;28;20450;-71
2021/12/13 01:54:08;;;;;;;22.27;16.27;;;11.90;89.90;;;;;;5060684;28;20020;-72
2021/12/13 01:57:10;;;;;;;23.08;15.52;;;11.90;89.80;;;;;;5074968;28;20032;-72
2021/12/13 01:59:56;;;;;;;22.25;16.30;;;11.90;89.90;;;;;;5077117;28;20039;-71
2021/12/13 02:02:35;;;;;;;22.58;16.45;;;11.80;89.80;;;;;;5075903;28;20035;-72
2021/12/13 02:05:14;;;;;;;24.70;16.80;;;11.90;89.90;;;;;;5058848;28;20499;-72
2021/12/13 02:07:44;;;;;;;24.90;16.92;;;11.80;89.90;;;;;;5077317;28;20037;-72
2021/12/13 02:10:15;;;;;;;27.13;18.02;;;11.80;89.80;;;;;;5076704;28;20032;-71
2021/12/13 02:12:44;;;;;;;25.17;18.73;;;11.80;89.80;;;;;;5077037;28;20020;-72
2021/12/13 02:17:56;;;;;;;25.20;18.55;;;11.80;89.80;;;;;;5077309;28;20059;-72
2021/12/13 02:20:31;;;;;;;26.70;19.02;;;11.80;89.80;;;;;;5075219;28;20093;-72
2021/12/13 02:22:57;;;;;;;24.85;16.55;;;11.80;89.80;;;;;;5075761;28;20457;-72
2021/12/13 02:25:29;;;;;;;27.77;19.00;;;11.80;89.80;;;;;;5075127;28;20044;-71
2021/12/13 02:27:58;;;;;;;28.63;19.02;;;11.80;89.80;;;;;;5075540;28;20488;-71
2021/12/13 02:30:33;;;;;;;29.63;20.38;;;11.80;89.80;;;;;;5075492;28;20365;-72
2021/12/13 02:33:00;;;;;;;29.15;19.85;;;11.80;89.80;;;;;;5075636;28;20507;-72
2021/12/13 02:35:30;;;;;;;28.33;19.65;;;11.80;89.80;;;;;;5075386;28;20353;-72
2021/12/13 02:37:59;;;;;;;31.45;21.13;;;11.80;89.70;;;;;;5076760;28;20053;-72
2021/12/13 02:40:25;;;;;;;28.80;20.60;;;11.80;89.70;;;;;;5075259;28;20116;-72
2021/12/13 02:42:51;;;;;;;30.73;21.63;;;11.80;89.70;;;;;;5075840;28;20158;-71
2021/12/13 02:45:35;;;;;;;30.23;21.17;;;11.80;89.70;;;;;;5075394;28;20136;-72
2021/12/13 02:48:26;;;;;;;29.42;21.48;;;11.80;89.60;;;;;;5076627;28;20056;-71
2021/12/13 02:51:05;;;;;;;29.55;21.50;;;11.80;89.70;;;;;;5075783;28;20437;-72
2021/12/13 02:53:41;;;;;;;28.67;20.52;;;11.80;89.60;;;;;;5066883;28;20025;-72
2021/12/13 02:56:08;;;;;;;29.52;20.67;;;11.80;89.60;;;;;;5072034;28;20032;-72
2021/12/13 02:58:37;;;;;;;29.23;20.52;;;11.80;89.50;;;;;;5075489;28;20346;-71
2021/12/13 03:01:19;;;;;;;28.90;21.15;;;11.80;89.50;;;;;;5075678;28;20032;-72
2021/12/13 03:03:49;;;;;;;28.77;20.38;;;11.90;89.50;;;;;;5075840;28;20136;-72
2021/12/13 03:06:20;;;;;;;29.42;20.27;;;11.80;89.50;;;;;;5076224;28;20405;-71
2021/12/13 03:08:58;;;;;;;27.60;20.50;;;11.80;89.40;;;;;;5076162;28;20713;-71
2021/12/13 03:11:30;;;;;;;26.90;19.90;;;11.80;89.40;;;;;;5075874;28;20294;-71
2021/12/13 03:14:03;;;;;;;27.67;19.85;;;11.80;89.40;;;;;;5075903;28;20020;-72
2021/12/13 03:16:43;;;;;;;25.88;18.77;;;11.80;89.40;;;;;;5076295;28;20056;-72
2021/12/13 03:19:28;;;;;;;25.00;17.48;;;11.80;89.40;;;;;;5074727;28;20028;-71
2021/12/13 03:22:12;;;;;;;26.15;18.30;;;11.80;89.30;;;;;;5057953;28;20108;-71
2021/12/13 03:25:15;;;;;;;24.60;17.35;;;11.80;89.40;;;;;;5056235;28;20057;-71
2021/12/13 03:27:48;;;;;;;22.15;16.13;;;11.80;89.30;;;;;;5057749;28;20045;-72
2021/12/13 03:30:26;;;;;;;20.73;15.32;;;11.80;89.30;;;;;;5074181;28;20414;-72
2021/12/13 03:32:57;;;;;;;24.60;16.90;;;11.80;89.30;;;;;;5073551;28;20020;-72
2021/12/13 03:35:40;;;;;;;;;;;11.80;89.30;;;;;;5075444;28;20082;-72
2021/12/13 03:38:20;;;;;;;20.15;13.60;;;11.70;89.20;;;;;;5074289;28;20057;-71
2021/12/13 03:40:47;;;;;;;22.25;15.38;;;11.70;89.30;;;;;;5074597;28;20039;-72
2021/12/13 03:43:19;;;;;;;22.70;15.27;;;11.70;89.20;;;;;;5075197;28;20043;-71
2021/12/13 03:45:50;;;;;;;21.92;15.32;;;11.70;89.20;;;;;;5074920;28;20038;-72
2021/12/13 03:48:20;;;;;;;18.77;13.77;;;11.70;89.20;;;;;;5074313;28;20036;-72
2021/12/13 03:50:51;;;;;;;20.70;14.10;;;11.70;89.20;;;;;;5073756;28;20110;-72
2021/12/13 03:53:23;;;;;;;21.27;15.15;;;11.70;89.20;;;;;;5074146;28;20329;-71
2021/12/13 03:55:54;;;;;;;18.50;12.13;;;11.70;89.10;;;;;;5053743;28;20434;-72
2021/12/13 03:58:22;;;;;;;19.90;14.95;;;11.70;89.10;;;;;;5073018;28;20133;-71
2021/12/13 04:00:56;;;;;;;17.42;13.00;;;11.70;89.00;;;;;;5073983;28;20423;-72
2021/12/13 04:03:24;;;;;;;19.17;12.43;;;11.70;89.10;;;;;;5073513;28;20113;-72
2021/12/13 04:05:51;;;;;;;17.05;12.68;;;11.70;89.00;;;;;;5074379;28;20040;-72
2021/12/13 04:08:20;;;;;;;19.60;12.75;;;11.70;89.00;;;;;;5074683;28;20455;-71
2021/12/13 04:10:55;;;;;;;18.42;13.80;;;11.70;88.90;;;;;;5074265;28;20033;-71
2021/12/13 04:13:25;;;;;;;18.02;13.27;;;11.70;88.90;;;;;;5073594;28;20461;-72
2021/12/13 04:16:09;;;;;;;17.52;12.73;;;11.70;88.90;;;;;;5074590;28;20028;-72
2021/12/13 04:21:23;;;;;;;21.55;13.05;;;11.70;88.80;;;;;;5074577;28;20086;-71
2021/12/13 04:23:55;;;;;;;21.77;14.25;;;11.70;88.80;;;;;;5074884;28;20032;-71
2021/12/13 04:26:22;;;;;;;19.05;13.10;;;11.70;88.70;;;;;;5074506;28;20040;-71
2021/12/13 04:28:52;;;;;;;19.85;12.73;;;11.70;88.70;;;;;;5073949;28;20105;-72
2021/12/13 04:31:22;;;;;;;17.85;12.10;;;11.70;88.70;;;;;;5073186;28;20076;-71
2021/12/13 04:33:51;;;;;;;17.38;12.68;;;11.60;88.70;;;;;;5073300;28;20032;-71
2021/12/13 04:36:38;;;;;;;18.83;13.07;;;11.70;88.70;;;;;;5072902;28;20062;-71
2021/12/13 04:39:31;;;;;;;18.77;12.55;;;11.60;88.60;;;;;;5074133;28;20038;-72
2021/12/13 04:42:00;;;;;;;19.70;12.98;;;11.60;88.50;;;;;;5073375;28;20031;-71
2021/12/13 04:44:31;;;;;;;20.58;13.02;;;11.60;88.50;;;;;;5072553;28;20499;-72
2021/12/13 04:47:13;;;;;;;20.80;12.73;;;11.60;88.60;;;;;;5072926;28;20033;-72
2021/12/13 04:49:43;;;;;;;17.48;11.98;;;11.60;88.50;;;;;;5074563;28;20119;-72
2021/12/13 04:52:13;;;;;;;21.90;12.43;;;11.60;88.50;;;;;;5073943;28;20024;-71
2021/12/13 04:54:44;;;;;;;20.85;13.10;;;11.60;88.50;;;;;;5073214;28;20029;-72
2021/12/13 04:57:10;;;;;;;19.95;13.80;;;11.60;88.40;;;;;;5072957;28;20421;-72
2021/12/13 04:59:36;;;;;;;21.65;13.50;;;11.60;88.40;;;;;;5073036;28;20028;-71
2021/12/13 05:02:06;;;;;;;21.77;13.77;;;11.60;88.40;;;;;;5072662;28;20048;-71
2021/12/13 05:04:32;;;;;;;23.02;13.52;;;11.60;88.40;;;;;;5056615;28;20480;-71
2021/12/13 05:07:00;;;;;;;20.83;14.52;;;11.60;88.30;;;;;;5072639;28;20098;-71
2021/12/13 05:09:28;;;;;;;22.30;13.93;;;11.60;88.30;;;;;;5073376;28;20360;-71
2021/12/13 05:12:07;;;;;;;19.33;12.55;;;11.60;88.30;;;;;;5073803;28;20100;-72
2021/12/13 05:14:45;;;;;;;25.08;15.23;;;11.60;88.90;;;;;;5074121;28;20039;-72
2021/12/13 05:17:16;;;;;;;24.17;15.27;;;11.60;88.30;;;;;;5050423;28;20036;-72
2021/12/13 05:19:49;;;;;;;22.35;13.52;;;11.60;88.30;;;;;;5072910;28;20035;-72
2021/12/13 05:22:17;;;;;;;19.23;13.38;;;11.60;88.30;;;;;;5073864;28;20052;-72
2021/12/13 05:24:55;;;;;;;22.25;14.60;;;11.60;88.30;;;;;;5056392;28;20025;-72
2021/12/13 05:27:37;;;;;;;23.27;15.70;;;11.60;88.30;;;;;;5071882;28;20141;-71
2021/12/13 05:30:11;;;;;;;;;;;11.60;88.20;;;;;;5074106;28;20028;-72
2021/12/13 05:32:46;;;;;;;21.25;13.52;;;11.60;88.20;;;;;;5072467;28;19920;-72
2021/12/13 05:35:15;;;;;;;24.35;13.98;;;11.50;88.30;;;;;;5056299;28;20031;-72
2021/12/13 05:37:43;;;;;;;21.75;14.73;;;11.50;88.20;;;;;;5072149;28;20032;-72
2021/12/13 05:40:14;;;;;;;22.73;15.20;;;11.50;88.10;;;;;;5072704;28;20044;-71
2021/12/13 05:42:42;;;;;;;22.17;14.30;;;11.50;88.20;;;;;;5052593;28;20028;-72
2021/12/13 05:45:11;;;;;;;23.70;14.98;;;11.50;88.10;;;;;;5069887;28;20124;-71
2021/12/13 05:47:37;;;;;;;22.58;14.27;;;11.50;88.10;;;;;;5073128;28;20331;-72
2021/12/13 05:50:07;;;;;;;23.75;14.88;;;11.50;88.10;;;;;;5072504;28;20066;-71
2021/12/13 05:52:38;;;;;;;24.30;15.88;;;11.50;88.10;;;;;;5073609;28;20025;-71
2021/12/13 05:55:12;;;;;;;22.80;14.73;;;11.50;88.10;;;;;;5074889;28;20348;-71
2021/12/13 05:57:44;;;;;;;22.15;14.77;;;11.50;88.70;;;;;;5076692;28;20097;-71
2021/12/13 06:00:16;;;;;;;23.25;15.18;;;11.50;88.10;;;;;;5076293;28;20036;-71
2021/12/13 06:03:08;;;;;;;25.88;15.40;;;11.50;88.10;;;;;;5076625;28;20057;-72
2021/12/13 06:05:40;;;;;;;23.10;14.57;;;11.50;87.90;;;;;;5059320;28;20028;-72
2021/12/13 06:08:12;;;;;;;;;;;11.50;88.00;;;;;;5076368;28;20105;-71
2021/12/13 06:10:40;;;;;;;22.50;14.38;;;11.50;87.90;;;;;;5076230;28;19916;-71
2021/12/13 06:13:08;;;;;;;19.58;12.65;;;11.50;88.00;;;;;;5075687;28;20089;-71
2021/12/13 06:15:40;;;;;;;22.10;14.38;;;11.50;88.00;;;;;;5076979;28;20103;-72
2021/12/13 06:18:13;;;;;;;22.92;14.70;;;11.50;87.90;;;;;;5076250;28;20405;-71
2021/12/13 06:20:58;;;;;;;24.25;14.82;;;11.50;87.90;;;;;;5077792;28;20028;-72
2021/12/13 06:23:27;;;;;;;23.80;14.88;;;11.50;87.90;;;;;;5076095;28;20111;-72
2021/12/13 06:26:00;;;;;;;22.20;14.35;;;11.50;87.80;;;;;;5074202;28;20357;-70
2021/12/13 06:28:29;;;;;;;24.20;14.60;;;11.50;87.80;;;;;;5075054;28;20377;-71
2021/12/13 06:31:10;;;;;;;22.52;14.75;;;11.50;87.80;;;;;;5076556;28;20354;-71
2021/12/13 06:33:55;;;;;;;22.08;13.80;;;11.50;87.70;;;;;;5076771;28;20017;-71
2021/12/13 06:36:32;;;;;;;21.42;13.68;;;11.50;87.60;;;;;;5071566;28;20032;-71
2021/12/13 06:39:07;;;;;;;23.33;14.10;;;11.50;87.60;;;;;;5075487;28;20110;-69
2021/12/13 06:41:41;;;;;;;22.85;13.73;;;11.50;87.60;;;;;;5075579;28;20032;-69
2021/12/13 06:44:17;;;;;;;25.45;14.15;;;11.50;87.50;;;;;;5075414;28;20469;-69
2021/12/13 06:47:06;;;;;;;22.08;14.38;;;11.50;87.50;;;;;;5076326;28;20035;-69
2021/12/13 06:49:35;;;;;;;20.90;13.27;;;11.50;87.40;;;;;;5076930;28;20337;-69
2021/12/13 06:52:19;;;;;;;19.98;12.45;;;11.50;87.40;;;;;;5058730;28;20040;-70
2021/12/13 06:54:49;;;;;;;24.08;14.20;;;11.50;87.40;;;;;;5075314;28;20060;-69
2021/12/13 06:57:22;;;;;;;19.20;11.88;;;11.50;87.30;;;;;;5074933;28;20057;-69
2021/12/13 06:59:52;;;;;;;25.73;13.32;;;11.50;87.30;;;;;;5058726;28;20090;-70
2021/12/13 07:02:25;;;;;;;19.95;12.60;;;11.50;87.20;;;;;;5076607;28;20032;-71
2021/12/13 07:04:53;;;;;;;21.48;13.73;;;11.50;87.10;;;;;;5075306;28;20040;-71
2021/12/13 07:07:29;;;;;;;22.55;13.23;;;11.50;87.00;;;;;;5075117;28;20109;-71
2021/12/13 07:10:03;;;;;;;21.67;12.55;;;11.50;87.00;;;;;;5076704;28;20032;-71
2021/12/13 07:12:31;;;;;;;21.90;14.32;;;11.50;87.00;;;;;;5058656;28;20440;-71
2021/12/13 07:15:01;;;;;;;20.58;12.82;;;11.50;87.00;;;;;;5076192;28;20056;-71
2021/12/13 07:17:34;;;;;;;19.65;12.10;;;11.50;86.90;;;;;;5074426;28;20460;-72
2021/12/13 07:20:14;;;;;;;22.83;12.90;;;11.50;86.90;;;;;;5075361;28;20032;-72
2021/12/13 07:22:42;;;;;;;20.08;11.52;;;11.50;86.90;;;;;;5074377;28;20124;-69
2021/12/13 07:25:13;;;;;;;19.75;12.05;;;11.60;86.80;;;;;;5054759;28;20035;-69
2021/12/13 07:27:45;;;;;;;19.40;12.52;;;11.60;86.70;;;;;;5071723;28;20510;-71
2021/12/13 07:30:13;;;;;;;19.33;11.98;;;11.60;86.60;;;;;;5051828;28;20108;-72
2021/12/13 07:32:46;;;;;;;19.70;12.18;;;11.60;86.50;;;;;;5055724;28;20055;-72
2021/12/13 07:35:18;;;;;;;20.67;13.55;;;11.60;86.30;;;;;;5069336;28;20035;-70
2021/12/13 07:37:46;;;;;;;;;;;11.70;87.00;;;;;;5058880;28;20445;-68
2021/12/13 07:40:32;;;;;;;21.83;12.02;;;11.60;86.30;;;;;;5074506;28;19916;-68
2021/12/13 07:43:09;;;;;;;18.63;12.02;;;11.60;86.20;;;;;;5076130;28;20109;-70
2021/12/13 07:45:54;;;;;;;20.15;12.63;;;11.60;86.30;;;;;;5074952;28;20170;-71
2021/12/13 07:48:22;;;;;;;19.73;11.82;;;11.70;86.30;;;;;;5074442;28;20032;-70
2021/12/13 07:50:56;;;;;;;19.85;11.88;;;11.60;86.30;;;;;;5054460;28;20442;-70
2021/12/13 07:53:26;;;;;;;19.98;11.52;;;11.60;86.30;;;;;;5058011;28;20086;-69
2021/12/13 07:55:52;;;;;;;21.23;11.93;;;11.60;86.40;;;;;;5072380;28;20081;-68
2021/12/13 07:58:59;;;;;;;18.63;11.82;;;11.60;86.30;;;;;;5074556;28;20028;-69
2021/12/13 08:01:27;;;;;;;18.55;11.48;;;11.60;86.30;;;;;;5032931;28;20041;-69
2021/12/13 08:04:07;;;;;;;18.45;11.43;;;11.60;86.30;;;;;;5059481;28;20383;-70
2021/12/13 08:06:39;;;;;;;18.38;10.35;;;11.60;86.30;;;;;;5073672;28;20028;-69
2021/12/13 08:09:10;;;;;;;19.20;11.80;;;11.60;86.30;;;;;;5074193;28;20115;-69
2021/12/13 08:11:56;;;;;;;16.70;11.05;;;11.60;86.20;;;;;;5054323;28;20350;-69
2021/12/13 08:14:49;;;;;;;18.63;11.43;;;11.60;86.20;;;;;;5070258;28;20033;-71
2021/12/13 08:17:23;;;;;;;18.75;11.75;;;11.50;86.10;;;;;;5071378;28;20044;-71
2021/12/13 08:19:59;;;;;;;16.98;10.43;;;11.50;86.80;;;;;;5073787;28;20434;-70
2021/12/13 08:22:29;;;;;;;18.42;11.32;;;11.50;86.10;;;;;;5073667;28;20044;-70
2021/12/13 08:25:04;;;;;;;19.42;12.15;;;11.50;86.10;;;;;;5075204;28;20028;-71
2021/12/13 08:27:43;;;;;;;18.48;11.13;;;11.50;86.10;;;;;;5056909;28;20056;-71
2021/12/13 08:30:19;;;;;;;17.13;10.48;;;11.50;86.00;;;;;;5056966;28;20048;-71
2021/12/13 08:33:06;;;;;;;18.05;10.50;;;11.50;86.00;;;;;;5068310;28;20054;-70
2021/12/13 08:35:50;;;;;;;16.30;10.43;;;11.50;85.90;;;;;;5073510;28;20294;-71
2021/12/13 08:38:43;;;;;;;16.75;10.30;;;11.50;85.90;;;;;;5074944;28;20028;-70
2021/12/13 08:41:14;;;;;;;17.75;11.52;;;11.50;85.90;;;;;;5061554;28;20044;-71
2021/12/13 08:43:42;;;;;;;;;;;11.50;86.00;;;;;;5057070;28;20032;-71
2021/12/13 08:46:09;;;;;;;13.73;9.02;;;11.60;86.00;;;;;;5072183;28;19923;-72
2021/12/13 08:48:48;;;;;;;15.23;9.25;;;11.50;86.00;;;;;;5071487;28;20119;-70
2021/12/13 08:51:20;;;;;;;18.05;10.25;;;11.60;85.80;;;;;;5071261;28;20037;-70
2021/12/13 08:54:05;;;;;;;16.33;10.40;;;11.60;85.80;;;;;;5074291;28;20021;-70
2021/12/13 08:56:35;;;;;;;15.10;10.20;;;11.60;85.70;;;;;;5071752;28;20047;-71
2021/12/13 08:59:10;;;;;;;18.80;10.85;;;11.60;85.70;;;;;;5068439;28;20044;-71
2021/12/13 09:01:50;;;;;;;14.57;10.10;;;11.60;85.70;;;;;;5054540;28;20030;-71
2021/12/13 09:04:46;;;;;;;18.90;11.65;;;11.60;85.60;;;;;;5071632;28;20434;-71
2021/12/13 09:07:14;;;;;;;16.30;10.60;;;11.60;85.50;;;;;;5066351;28;20098;-71
2021/12/13 09:09:44;;;;;;;17.58;10.70;;;11.60;85.50;;;;;;5071508;28;20036;-71
2021/12/13 09:12:14;;;;;;;14.63;8.88;;;11.60;85.50;;;;;;5054257;28;20028;-70
2021/12/13 09:14:50;;;;;;;17.10;10.15;;;11.60;85.60;;;;;;5072707;28;20088;-71
2021/12/13 09:17:26;;;;;;;15.60;10.20;;;11.60;85.50;;;;;;5071920;28;20423;-70
2021/12/13 09:20:05;;;;;;;14.77;9.85;;;11.60;85.50;;;;;;5068280;28;20039;-71
2021/12/13 09:22:37;;;;;;;16.35;9.90;;;11.60;85.40;;;;;;5072499;28;20045;-71
2021/12/13 09:25:29;;;;;;;16.48;9.70;;;11.60;85.30;;;;;;5073672;28;20024;-70
2021/12/13 09:28:01;;;;;;;16.55;9.82;;;11.60;85.30;;;;;;5072724;28;20101;-70
2021/12/13 09:30:35;;;;;;;15.15;9.23;;;11.70;85.40;;;;;;5074875;28;20067;-71
2021/12/13 09:33:33;;;;;;;14.48;8.70;;;11.60;85.30;;;;;;5059433;28;20962;-70
2021/12/13 09:36:08;;;;;;;14.82;8.88;;;11.60;85.30;;;;;;5073237;28;20109;-70
2021/12/13 09:38:36;;;;;;;15.38;9.45;;;11.70;85.40;;;;;;5059517;28;20025;-70
2021/12/13 09:41:19;;;;;;;15.63;9.55;;;11.60;85.30;;;;;;5075848;28;20031;-70
2021/12/13 09:44:00;;;;;;;14.82;9.57;;;11.70;85.30;;;;;;5076832;28;20507;-71
2021/12/13 09:46:35;;;;;;;15.55;9.00;;;11.70;85.20;;;;;;5059475;28;20115;-71
2021/12/13 09:49:08;;;;;;;15.10;9.13;;;11.70;85.20;;;;;;5074516;28;20158;-71
2021/12/13 09:51:46;;;;;;;13.45;8.75;;;11.70;85.20;;;;;;5077264;28;20044;-71
2021/12/13 09:54:15;;;;;;;13.23;8.35;;;11.70;85.20;;;;;;5076039;28;20314;-70
2021/12/13 09:56:49;;;;;;;13.75;8.70;;;11.70;85.20;;;;;;5077447;28;20368;-71
2021/12/13 09:59:44;;;;;;;15.35;10.35;;;11.70;85.20;;;;;;5055631;28;20123;-70
2021/12/13 10:02:38;;;;;;;16.42;8.88;;;11.70;85.20;;;;;;5072687;28;20094;-70
2021/12/13 10:05:09;;;;;;;14.70;8.38;;;11.70;85.10;;;;;;5092935;28;20039;-71
2021/12/13 10:07:39;;;;;;;13.30;8.38;;;11.70;85.10;;;;;;5059836;28;20026;-70
2021/12/13 10:10:34;;;;;;;12.75;7.68;;;11.70;85.10;;;;;;5056770;28;20125;-71
2021/12/13 10:13:05;;;;;;;13.52;7.95;;;11.70;85.10;;;;;;5059730;28;20120;-70
2021/12/13 10:15:54;;;;;;;12.95;8.32;;;11.70;85.10;;;;;;5075455;28;20060;-70
2021/12/13 10:18:24;;;;;;;14.38;8.52;;;11.70;84.90;;;;;;5073420;28;20111;-71
2021/12/13 10:20:54;;;;;;;14.05;8.18;;;11.70;84.90;;;;;;5075895;28;20028;-70
2021/12/13 10:23:24;;;;;;;13.88;8.00;;;11.70;84.90;;;;;;5076764;28;20453;-70
2021/12/13 10:25:54;;;;;;;13.73;8.35;;;11.70;84.90;;;;;;5076309;28;20036;-70
2021/12/13 10:28:26;;;;;;;14.20;8.05;;;11.70;84.90;;;;;;5076183;28;20125;-70
2021/12/13 10:31:03;;;;;;;13.52;8.38;;;11.70;84.90;;;;;;5076985;28;20062;-71
2021/12/13 10:33:29;;;;;;;12.50;7.80;;;11.70;84.90;;;;;;5076895;28;20105;-70
2021/12/13 10:35:56;;;;;;;13.05;8.25;;;11.80;84.80;;;;;;5075845;28;20052;-71
2021/12/13 10:38:40;;;;;;;14.57;7.80;;;11.70;84.70;;;;;;5075079;28;20031;-70
2021/12/13 10:41:09;;;;;;;11.20;6.47;;;11.80;84.60;;;;;;5075223;28;20056;-70
2021/12/13 10:43:41;;;;;;;11.40;6.93;;;11.80;84.60;;;;;;5074871;28;20020;-70
2021/12/13 10:46:11;;;;;;;11.68;7.35;;;11.80;84.50;;;;;;5065387;28;20510;-70
2021/12/13 10:48:44;;;;;;;11.73;7.27;;;11.80;84.40;;;;;;5051154;28;20059;-70
2021/12/13 10:51:20;;;;;;;11.88;6.93;;;11.80;84.40;;;;;;5073472;28;20048;-70
2021/12/13 10:53:49;;;;;;;12.85;7.13;;;11.80;84.30;;;;;;5065606;28;20020;-70
2021/12/13 10:56:20;;;;;;;10.60;6.35;;;11.80;85.00;;;;;;5076627;28;20089;-70
2021/12/13 10:58:50;;;;;;;12.43;6.68;;;11.80;84.20;;;;;;5076355;28;20025;-70
2021/12/13 11:01:26;;;;;;;12.60;7.45;;;11.80;84.20;;;;;;5075311;28;20033;-70
2021/12/13 11:03:53;;;;;;;11.70;6.47;;;11.80;84.10;;;;;;5075394;28;20445;-70
2021/12/13 11:06:20;;;;;;;11.88;7.13;;;11.90;84.10;;;;;;5075305;28;20051;-70
2021/12/13 11:08:46;;;;;;;11.70;6.55;;;11.80;84.00;;;;;;5076311;28;20197;-70
2021/12/13 11:11:20;;;;;;;10.73;6.60;;;11.90;84.00;;;;;;5076705;28;20145;-70
2021/12/13 11:13:49;;;;;;;11.25;6.25;;;11.90;83.90;;;;;;5075500;28;20056;-70
2021/12/13 11:16:26;;;;;;;10.27;5.97;;;11.90;83.90;;;;;;5076653;28;20082;-70
2021/12/13 11:18:52;;;;;;;10.85;6.20;;;11.90;83.80;;;;;;5076086;28;20021;-71
2021/12/13 11:21:27;;;;;;;11.15;6.85;;;11.90;83.90;;;;;;5076040;28;20044;-71
2021/12/13 11:23:54;;;;;;;16.02;7.75;;;11.90;83.80;;;;;;5075700;28;20028;-70
2021/12/13 11:26:24;;;;;;;10.45;6.40;;;11.90;83.80;;;;;;5074935;28;20349;-70
2021/12/13 11:28:52;;;;;;;12.50;6.32;;;11.90;83.70;;;;;;5074451;28;20056;-70
2021/12/13 11:31:52;;;;;;;10.27;6.30;;;11.90;83.70;;;;;;5074644;28;20056;-70
2021/12/13 11:34:46;;;;;;;10.52;6.70;;;11.90;83.60;;;;;;5075615;28;20078;-69
2021/12/13 11:37:30;;;;;;;10.45;6.22;;;11.90;83.60;;;;;;5075751;28;20029;-70
2021/12/13 11:40:20;;;;;;;11.13;6.15;;;11.90;83.70;;;;;;5074415;28;20062;-69
2021/12/13 11:43:13;;;;;;;11.70;5.82;;;11.90;83.60;;;;;;5075877;28;20031;-71
2021/12/13 11:46:27;;;;;;;11.68;6.20;;;11.90;83.60;;;;;;5073856;28;20464;-71
2021/12/13 11:49:30;;;;;;;10.27;5.75;;;12.00;83.60;;;;;;5069300;28;20033;-71
2021/12/13 11:52:36;;;;;;;10.73;5.93;;;11.90;83.50;;;;;;5062995;28;20383;-71
2021/12/13 11:55:39;;;;;;;10.45;6.13;;;11.90;83.50;;;;;;5043830;28;20098;-70
2021/12/13 11:58:42;;;;;;;11.18;6.65;;;11.90;83.50;;;;;;5073344;28;20028;-70
2021/12/13 12:01:47;;;;;;;10.98;6.28;;;11.90;83.40;;;;;;5073052;28;20025;-71
2021/12/13 12:04:59;;;;;;;9.65;5.72;;;11.90;83.50;;;;;;5074256;28;20036;-70
2021/12/13 12:07:51;;;;;;;12.32;5.97;;;11.90;83.40;;;;;;5053778;28;20032;-70
2021/12/13 12:10:36;;;;;;;;;;;11.90;83.50;;;;;;5063976;28;20029;-70
2021/12/13 12:13:39;;;;;;;9.82;5.60;;;11.90;83.50;;;;;;5071812;28;20329;-70
2021/12/13 12:16:06;;;;;;;9.63;5.07;;;11.90;83.50;;;;;;5073477;28;20021;-70
2021/12/13 12:18:35;;;;;;;9.85;5.88;;;11.90;83.50;;;;;;5074128;28;20419;-70
2021/12/13 12:21:29;;;;;;;9.07;5.35;;;11.80;83.40;;;;;;5072965;28;20037;-70
2021/12/13 12:23:54;;;;;;;10.30;5.40;;;11.90;83.40;;;;;;5071846;28;20020;-70
2021/12/13 12:26:22;;;;;;;9.18;5.43;;;11.90;83.40;;;;;;5074145;28;20437;-70
2021/12/13 12:28:49;;;;;;;10.93;5.85;;;11.90;83.30;;;;;;5074233;28;20052;-70
2021/12/13 12:31:15;;;;;;;10.75;5.47;;;11.90;83.30;;;;;;5075140;28;20074;-70
2021/12/13 12:33:42;;;;;;;9.73;5.80;;;11.90;83.20;;;;;;5057385;28;20388;-70
2021/12/13 12:36:22;;;;;;;12.30;6.10;;;11.90;83.20;;;;;;5074283;28;20108;-70
2021/12/13 12:39:03;;;;;;;9.65;5.78;;;11.90;83.10;;;;;;5074236;28;20063;-70
2021/12/13 12:41:51;;;;;;;10.10;5.78;;;11.90;83.20;;;;;;5075587;28;20040;-70
2021/12/13 12:44:29;;;;;;;9.38;4.72;;;12.00;83.10;;;;;;5074660;28;20078;-70
2021/12/13 12:46:56;;;;;;;9.43;5.43;;;12.00;83.10;;;;;;5074940;28;20036;-70
2021/12/13 12:49:24;;;;;;;9.55;5.82;;;12.00;83.10;;;;;;5074740;28;20032;-70
2021/12/13 12:51:53;;;;;;;8.93;5.00;;;12.00;83.10;;;;;;5073527;28;20029;-70
2021/12/13 12:54:21;;;;;;;9.00;5.70;;;12.00;83.10;;;;;;5073433;28;20039;-70
2021/12/13 12:56:53;;;;;;;11.13;5.70;;;12.00;83.00;;;;;;5073796;28;20028;-70
2021/12/13 12:59:20;;;;;;;11.65;5.95;;;12.00;83.00;;;;;;5056848;28;20050;-70
2021/12/13 13:01:58;;;;;;;10.23;5.30;;;12.10;83.10;;;;;;5073624;28;20426;-70
2021/12/13 13:04:39;;;;;;;9.57;5.32;;;12.00;83.00;;;;;;5072589;28;20029;-70
2021/12/13 13:07:07;;;;;;;9.75;5.80;;;12.00;82.80;;;;;;5074663;28;20043;-70
2021/12/13 13:09:49;;;;;;;9.30;5.63;;;12.00;82.90;;;;;;5074921;28;20404;-70
2021/12/13 13:12:30;;;;;;;10.18;5.60;;;12.00;82.80;;;;;;5074739;28;20327;-70
2021/12/13 13:15:14;;;;;;;9.37;5.83;;;12.00;82.80;;;;;;5073450;28;20090;-70
2021/12/13 13:17:47;;;;;;;10.57;5.43;;;12.00;82.80;;;;;;5073610;28;20032;-70
2021/12/13 13:20:19;;;;;;;9.73;5.50;;;12.00;82.90;;;;;;5073512;28;20457;-70
2021/12/13 13:22:47;;;;;;;10.55;4.93;;;12.00;82.90;;;;;;5073099;28;20024;-70
2021/12/13 13:25:44;;;;;;;8.88;4.85;;;12.00;82.90;;;;;;5074030;28;20025;-70
2021/12/13 13:28:29;;;;;;;9.30;5.47;;;12.00;82.80;;;;;;5072960;28;20174;-70